sensor_id;sensor_type;location;lat;lon;timestamp;pressure;altitude;pressure_sealevel;temperature;humidity
51249;BME280;39642;47.556;18.728;2023-09-18T00:01:52;99880.28;;;24.02;53.03
51249;BME280;39642;47.556;18.728;2023-09-18T00:04:18;99871.59;;;24.00;53.02
51249;BME280;39642;47.556;18.728;2023-09-18T00:06:44;99873.28;;;24.01;53.04
51249;BME280;39642;47.556;18.728;2023-09-18T00:09:10;99868.94;;;24.00;53.08
51249;BME280;39642;47.556;18.728;2023-09-18T00:11:40;99870.63;;;24.01;53.05
51249;BME280;39642;47.556;18.728;2023-09-18T00:14:07;99871.59;;;24.00;53.09
51249;BME280;39642;47.556;18.728;2023-09-18T00:16:33;99863.63;;;24.00;53.01
51249;BME280;39642;47.556;18.728;2023-09-18T00:18:59;99868.94;;;24.00;53.05
51249;BME280;39642;47.556;18.728;2023-09-18T00:21:26;99865.41;;;24.00;53.04
51249;BME280;39642;47.556;18.728;2023-09-18T00:23:52;99865.41;;;24.00;53.05
51249;BME280;39642;47.556;18.728;2023-09-18T00:26:18;99869.88;;;23.99;53.06
51249;BME280;39642;47.556;18.728;2023-09-18T00:28:44;99875.19;;;23.99;53.07
51249;BME280;39642;47.556;18.728;2023-09-18T00:31:10;99868.19;;;23.98;53.10
51249;BME280;39642;47.556;18.728;2023-09-18T00:33:35;99862.00;;;23.98;53.07
51249;BME280;39642;47.556;18.728;2023-09-18T00:36:01;99870.84;;;23.98;53.11
51249;BME280;39642;47.556;18.728;2023-09-18T00:38:27;99866.38;;;23.99;53.10
51249;BME280;39642;47.556;18.728;2023-09-18T00:40:53;99862.88;;;23.98;53.04
51249;BME280;39642;47.556;18.728;2023-09-18T00:43:19;99855.75;;;23.99;53.03
51249;BME280;39642;47.556;18.728;2023-09-18T00:45:48;99861.91;;;23.99;53.05
51249;BME280;39642;47.556;18.728;2023-09-18T00:48:15;99860.22;;;23.98;53.05
51249;BME280;39642;47.556;18.728;2023-09-18T00:50:42;99863.72;;;23.99;53.03
51249;BME280;39642;47.556;18.728;2023-09-18T00:53:11;99867.22;;;23.99;53.07
51249;BME280;39642;47.556;18.728;2023-09-18T00:55:39;99862.88;;;23.98;53.04
51249;BME280;39642;47.556;18.728;2023-09-18T00:58:06;99857.56;;;23.98;53.04
51249;BME280;39642;47.556;18.728;2023-09-18T01:00:32;99861.16;;;23.97;53.05
51249;BME280;39642;47.556;18.728;2023-09-18T01:02:59;99854.03;;;23.98;53.05
51249;BME280;39642;47.556;18.728;2023-09-18T01:05:26;99845.19;;;23.97;53.01
51249;BME280;39642;47.556;18.728;2023-09-18T01:07:51;99846.03;;;23.98;53.03
51249;BME280;39642;47.556;18.728;2023-09-18T01:10:18;99841.69;;;23.97;53.01
51249;BME280;39642;47.556;18.728;2023-09-18T01:12:55;99840.72;;;23.98;53.04
51249;BME280;39642;47.556;18.728;2023-09-18T01:15:32;99850.50;;;23.97;53.01
51249;BME280;39642;47.556;18.728;2023-09-18T01:18:01;99837.22;;;23.97;53.00
51249;BME280;39642;47.556;18.728;2023-09-18T01:20:28;99842.63;;;23.96;53.01
51249;BME280;39642;47.556;18.728;2023-09-18T01:22:54;99832.75;;;23.98;53.03
51249;BME280;39642;47.556;18.728;2023-09-18T01:25:20;99835.53;;;23.96;52.99
51249;BME280;39642;47.556;18.728;2023-09-18T01:27:46;99838.19;;;23.96;53.05
51249;BME280;39642;47.556;18.728;2023-09-18T01:30:12;99838.19;;;23.96;53.01
51249;BME280;39642;47.556;18.728;2023-09-18T01:32:39;99845.31;;;23.96;53.01
51249;BME280;39642;47.556;18.728;2023-09-18T01:35:06;99846.19;;;23.96;53.00
51249;BME280;39642;47.556;18.728;2023-09-18T01:37:34;99843.50;;;23.96;53.00
51249;BME280;39642;47.556;18.728;2023-09-18T01:40:02;99841.78;;;23.95;52.98
51249;BME280;39642;47.556;18.728;2023-09-18T01:42:32;99841.78;;;23.95;52.99
51249;BME280;39642;47.556;18.728;2023-09-18T01:44:59;99844.47;;;23.95;52.95
51249;BME280;39642;47.556;18.728;2023-09-18T01:47:24;99841.78;;;23.95;52.98
51249;BME280;39642;47.556;18.728;2023-09-18T01:49:52;99839.13;;;23.95;52.97
51249;BME280;39642;47.556;18.728;2023-09-18T01:52:18;99832.97;;;23.95;52.96
51249;BME280;39642;47.556;18.728;2023-09-18T01:54:44;99832.97;;;23.95;52.94
51249;BME280;39642;47.556;18.728;2023-09-18T01:57:10;99831.28;;;23.94;52.95
51249;BME280;39642;47.556;18.728;2023-09-18T01:59:37;99833.06;;;23.93;52.95
51249;BME280;39642;47.556;18.728;2023-09-18T02:02:04;99830.41;;;23.93;52.93
51249;BME280;39642;47.556;18.728;2023-09-18T02:04:33;99836.62;;;23.94;52.93
51249;BME280;39642;47.556;18.728;2023-09-18T02:06:59;99834.78;;;23.94;52.93
51249;BME280;39642;47.556;18.728;2023-09-18T02:09:25;99829.47;;;23.94;52.90
51249;BME280;39642;47.556;18.728;2023-09-18T02:11:51;99836.62;;;23.94;52.89
51249;BME280;39642;47.556;18.728;2023-09-18T02:14:16;99825.09;;;23.93;52.89
51249;BME280;39642;47.556;18.728;2023-09-18T02:16:43;99830.41;;;23.93;52.88
51249;BME280;39642;47.556;18.728;2023-09-18T02:19:10;99828.63;;;23.94;52.89
51249;BME280;39642;47.556;18.728;2023-09-18T02:21:36;99834.91;;;23.93;52.88
51249;BME280;39642;47.556;18.728;2023-09-18T02:24:03;99830.41;;;23.93;52.86
51249;BME280;39642;47.556;18.728;2023-09-18T02:26:29;99834.06;;;23.92;52.86
51249;BME280;39642;47.556;18.728;2023-09-18T02:28:58;99836.72;;;23.92;52.85
51249;BME280;39642;47.556;18.728;2023-09-18T02:31:24;99843.72;;;23.93;52.84
51249;BME280;39642;47.556;18.728;2023-09-18T02:33:50;99833.06;;;23.93;52.85
51249;BME280;39642;47.556;18.728;2023-09-18T02:36:16;99831.38;;;23.92;52.82
51249;BME280;39642;47.556;18.728;2023-09-18T02:38:42;99837.56;;;23.93;52.81
51249;BME280;39642;47.556;18.728;2023-09-18T02:41:09;99834.06;;;23.92;52.82
51249;BME280;39642;47.556;18.728;2023-09-18T02:43:35;99833.22;;;23.92;52.83
51249;BME280;39642;47.556;18.728;2023-09-18T02:46:04;99836.72;;;23.92;52.82
51249;BME280;39642;47.556;18.728;2023-09-18T02:48:31;99842.03;;;23.92;52.81
51249;BME280;39642;47.556;18.728;2023-09-18T02:50:59;99836.72;;;23.92;52.81
51249;BME280;39642;47.556;18.728;2023-09-18T02:53:25;99842.03;;;23.92;52.82
51249;BME280;39642;47.556;18.728;2023-09-18T02:55:52;99843.84;;;23.92;52.83
51249;BME280;39642;47.556;18.728;2023-09-18T02:58:19;99842.03;;;23.92;52.82
51249;BME280;39642;47.556;18.728;2023-09-18T03:00:46;99842.03;;;23.92;52.79
51249;BME280;39642;47.556;18.728;2023-09-18T03:03:13;99847.34;;;23.92;52.78
51249;BME280;39642;47.556;18.728;2023-09-18T03:05:40;99847.34;;;23.92;52.80
51249;BME280;39642;47.556;18.728;2023-09-18T03:08:06;99841.19;;;23.92;52.79
51249;BME280;39642;47.556;18.728;2023-09-18T03:10:33;99835.00;;;23.91;52.81
51249;BME280;39642;47.556;18.728;2023-09-18T03:13:01;99837.66;;;23.91;52.81
51249;BME280;39642;47.556;18.728;2023-09-18T03:15:27;99842.03;;;23.92;52.81
51249;BME280;39642;47.556;18.728;2023-09-18T03:17:53;99828.84;;;23.90;52.81
51249;BME280;39642;47.556;18.728;2023-09-18T03:20:22;99827.00;;;23.91;52.82
51249;BME280;39642;47.556;18.728;2023-09-18T03:22:50;99828.84;;;23.90;52.80
51249;BME280;39642;47.556;18.728;2023-09-18T03:25:16;99826.19;;;23.90;52.80
51249;BME280;39642;47.556;18.728;2023-09-18T03:27:42;99820.84;;;23.90;52.80
51249;BME280;39642;47.556;18.728;2023-09-18T03:30:08;99829.69;;;23.91;52.81
51249;BME280;39642;47.556;18.728;2023-09-18T03:32:34;99828.84;;;23.90;52.82
51249;BME280;39642;47.556;18.728;2023-09-18T03:35:01;99825.34;;;23.90;52.83
51249;BME280;39642;47.556;18.728;2023-09-18T03:37:28;99822.66;;;23.90;52.83
51249;BME280;39642;47.556;18.728;2023-09-18T03:39:54;99828.97;;;23.89;52.83
51249;BME280;39642;47.556;18.728;2023-09-18T03:42:20;99821.00;;;23.89;52.84
51249;BME280;39642;47.556;18.728;2023-09-18T03:44:46;99823.50;;;23.90;52.82
51249;BME280;39642;47.556;18.728;2023-09-18T03:47:11;99816.50;;;23.89;52.83
51249;BME280;39642;47.556;18.728;2023-09-18T03:49:37;99813.00;;;23.89;52.81
51249;BME280;39642;47.556;18.728;2023-09-18T03:52:03;99816.50;;;23.89;52.82
51249;BME280;39642;47.556;18.728;2023-09-18T03:54:29;99821.00;;;23.89;52.83
51249;BME280;39642;47.556;18.728;2023-09-18T03:56:55;99815.78;;;23.87;52.82
51249;BME280;39642;47.556;18.728;2023-09-18T03:59:21;99820.13;;;23.88;52.83
51249;BME280;39642;47.556;18.728;2023-09-18T04:01:46;99807.69;;;23.89;52.83
51249;BME280;39642;47.556;18.728;2023-09-18T04:04:12;99806.81;;;23.88;52.77
51249;BME280;39642;47.556;18.728;2023-09-18T04:06:42;99809.38;;;23.90;52.73
51249;BME280;39642;47.556;18.728;2023-09-18T04:09:08;99809.38;;;23.90;52.72
51249;BME280;39642;47.556;18.728;2023-09-18T04:11:35;99811.06;;;23.91;52.69
51249;BME280;39642;47.556;18.728;2023-09-18T04:14:01;99807.56;;;23.90;52.71
51249;BME280;39642;47.556;18.728;2023-09-18T04:16:29;99804.06;;;23.90;52.67
51249;BME280;39642;47.556;18.728;2023-09-18T04:18:56;99804.91;;;23.90;52.67
51249;BME280;39642;47.556;18.728;2023-09-18T04:21:22;99794.25;;;23.90;52.67
51249;BME280;39642;47.556;18.728;2023-09-18T04:23:49;99793.41;;;23.90;52.68
51249;BME280;39642;47.556;18.728;2023-09-18T04:26:21;99787.13;;;23.91;52.65
51249;BME280;39642;47.556;18.728;2023-09-18T04:28:48;99793.31;;;23.92;52.67
51249;BME280;39642;47.556;18.728;2023-09-18T04:31:13;99792.44;;;23.91;52.67
51249;BME280;39642;47.556;18.728;2023-09-18T04:33:39;99787.03;;;23.93;52.79
51249;BME280;39642;47.556;18.728;2023-09-18T04:36:05;99793.31;;;23.92;52.87
51249;BME280;39642;47.556;18.728;2023-09-18T04:38:31;99786.19;;;23.92;52.94
51249;BME280;39642;47.556;18.728;2023-09-18T04:40:58;99791.50;;;23.92;53.00
51249;BME280;39642;47.556;18.728;2023-09-18T04:43:25;99784.47;;;23.91;53.35
51249;BME280;39642;47.556;18.728;2023-09-18T04:45:51;99783.75;;;23.89;53.78
51249;BME280;39642;47.556;18.728;2023-09-18T04:48:17;99785.69;;;23.87;54.90
51249;BME280;39642;47.556;18.728;2023-09-18T04:50:43;99787.59;;;23.85;53.92
51249;BME280;39642;47.556;18.728;2023-09-18T04:53:09;99783.44;;;23.81;53.89
51249;BME280;39642;47.556;18.728;2023-09-18T04:55:35;99781.63;;;23.81;54.14
51249;BME280;39642;47.556;18.728;2023-09-18T04:58:01;99775.47;;;23.81;53.83
51249;BME280;39642;47.556;18.728;2023-09-18T05:00:29;99784.19;;;23.83;53.87
51249;BME280;39642;47.556;18.728;2023-09-18T05:02:55;99781.53;;;23.83;53.82
51249;BME280;39642;47.556;18.728;2023-09-18T05:05:21;99786.72;;;23.84;53.79
51249;BME280;39642;47.556;18.728;2023-09-18T05:07:47;99779.63;;;23.85;53.75
51249;BME280;39642;47.556;18.728;2023-09-18T05:10:13;99785.78;;;23.85;53.73
51249;BME280;39642;47.556;18.728;2023-09-18T05:12:39;99782.28;;;23.85;53.56
51249;BME280;39642;47.556;18.728;2023-09-18T05:15:05;99783.22;;;23.84;53.57
51249;BME280;39642;47.556;18.728;2023-09-18T05:17:42;99784.19;;;23.83;53.57
51249;BME280;39642;47.556;18.728;2023-09-18T05:20:10;99783.34;;;23.82;53.66
51249;BME280;39642;47.556;18.728;2023-09-18T05:22:42;99788.88;;;23.79;53.61
51249;BME280;39642;47.556;18.728;2023-09-18T05:25:11;99786.34;;;23.78;54.28
51249;BME280;39642;47.556;18.728;2023-09-18T05:27:37;99791.66;;;23.78;54.12
51249;BME280;39642;47.556;18.728;2023-09-18T05:30:17;99799.50;;;23.79;54.23
51249;BME280;39642;47.556;18.728;2023-09-18T05:32:43;99790.69;;;23.79;53.82
51249;BME280;39642;47.556;18.728;2023-09-18T05:35:11;99789.94;;;23.77;54.18
51249;BME280;39642;47.556;18.728;2023-09-18T05:37:39;99781.63;;;23.68;54.10
51249;BME280;39642;47.556;18.728;2023-09-18T05:40:08;99781.03;;;23.65;54.41
51249;BME280;39642;47.556;18.728;2023-09-18T05:42:36;99783.28;;;23.58;54.38
51249;BME280;39642;47.556;18.728;2023-09-18T05:45:02;99783.28;;;23.58;54.32
51249;BME280;39642;47.556;18.728;2023-09-18T05:47:32;99787.00;;;23.56;54.31
51249;BME280;39642;47.556;18.728;2023-09-18T05:49:58;99792.50;;;23.53;54.64
51249;BME280;39642;47.556;18.728;2023-09-18T05:52:24;99786.59;;;23.49;54.65
51249;BME280;39642;47.556;18.728;2023-09-18T05:54:51;99788.69;;;23.44;54.98
51249;BME280;39642;47.556;18.728;2023-09-18T05:57:17;99791.25;;;23.45;54.99
51249;BME280;39642;47.556;18.728;2023-09-18T05:59:43;99789.44;;;23.46;55.12
51249;BME280;39642;47.556;18.728;2023-09-18T06:02:11;99789.25;;;23.49;54.81
51249;BME280;39642;47.556;18.728;2023-09-18T06:04:37;99788.06;;;23.53;54.94
51249;BME280;39642;47.556;18.728;2023-09-18T06:07:03;99785.19;;;23.56;53.92
51249;BME280;39642;47.556;18.728;2023-09-18T06:09:29;99792.59;;;23.64;53.91
51249;BME280;39642;47.556;18.728;2023-09-18T06:11:55;99794.31;;;23.65;53.96
51249;BME280;39642;47.556;18.728;2023-09-18T06:14:22;99796.00;;;23.66;54.08
51249;BME280;39642;47.556;18.728;2023-09-18T06:16:48;99793.97;;;23.69;54.09
51249;BME280;39642;47.556;18.728;2023-09-18T06:19:15;99790.25;;;23.72;54.07
51249;BME280;39642;47.556;18.728;2023-09-18T06:21:44;99795.37;;;23.75;53.97
51249;BME280;39642;47.556;18.728;2023-09-18T06:24:10;99784.62;;;23.77;53.95
51249;BME280;39642;47.556;18.728;2023-09-18T06:26:35;99780.91;;;23.79;53.86
51249;BME280;39642;47.556;18.728;2023-09-18T06:29:02;99785.13;;;23.82;53.85
51249;BME280;39642;47.556;18.728;2023-09-18T06:31:28;99775.38;;;23.82;53.77
51249;BME280;39642;47.556;18.728;2023-09-18T06:33:54;99780.78;;;23.81;53.79
51249;BME280;39642;47.556;18.728;2023-09-18T06:36:20;99778.13;;;23.81;53.83
51249;BME280;39642;47.556;18.728;2023-09-18T06:38:46;99778.03;;;23.82;53.88
51249;BME280;39642;47.556;18.728;2023-09-18T06:41:12;99778.88;;;23.83;53.88
51249;BME280;39642;47.556;18.728;2023-09-18T06:43:38;99775.47;;;23.81;53.85
51249;BME280;39642;47.556;18.728;2023-09-18T06:46:04;99774.63;;;23.80;54.06
51249;BME280;39642;47.556;18.728;2023-09-18T06:48:32;99775.56;;;23.79;54.34
51249;BME280;39642;47.556;18.728;2023-09-18T06:50:58;99776.66;;;23.77;54.79
51249;BME280;39642;47.556;18.728;2023-09-18T06:53:26;99777.63;;;23.76;54.65
51249;BME280;39642;47.556;18.728;2023-09-18T06:55:53;99778.38;;;23.78;54.82
51249;BME280;39642;47.556;18.728;2023-09-18T06:58:19;99772.19;;;23.77;55.19
51249;BME280;39642;47.556;18.728;2023-09-18T07:00:46;99770.25;;;23.79;54.99
51249;BME280;39642;47.556;18.728;2023-09-18T07:03:12;99771.44;;;23.75;54.92
51249;BME280;39642;47.556;18.728;2023-09-18T07:05:39;99777.81;;;23.73;54.85
51249;BME280;39642;47.556;18.728;2023-09-18T07:08:05;99771.53;;;23.74;55.00
51249;BME280;39642;47.556;18.728;2023-09-18T07:10:39;99762.63;;;23.75;54.62
51249;BME280;39642;47.556;18.728;2023-09-18T07:13:06;99767.84;;;23.76;54.66
51249;BME280;39642;47.556;18.728;2023-09-18T07:15:32;99761.69;;;23.76;54.69
51249;BME280;39642;47.556;18.728;2023-09-18T07:17:58;99763.47;;;23.75;54.65
51249;BME280;39642;47.556;18.728;2023-09-18T07:20:24;99761.69;;;23.76;54.68
51249;BME280;39642;47.556;18.728;2023-09-18T07:22:50;99767.94;;;23.75;54.63
51249;BME280;39642;47.556;18.728;2023-09-18T07:25:20;99771.44;;;23.75;54.69
51249;BME280;39642;47.556;18.728;2023-09-18T07:42:58;99741.97;;;24.50;54.04
51249;BME280;39642;47.556;18.728;2023-09-18T07:45:24;99741.97;;;24.50;54.04
51249;BME280;39642;47.556;18.728;2023-09-18T07:47:51;99748.03;;;24.04;54.56
51249;BME280;39642;47.556;18.728;2023-09-18T07:50:17;99746.62;;;24.12;54.50
51249;BME280;39642;47.556;18.728;2023-09-18T07:52:44;99740.72;;;24.19;54.10
51249;BME280;39642;47.556;18.728;2023-09-18T07:55:09;99740.38;;;24.24;53.94
51249;BME280;39642;47.556;18.728;2023-09-18T07:57:35;99740.28;;;24.25;53.84
51249;BME280;39642;47.556;18.728;2023-09-18T08:00:04;99736.53;;;24.28;53.87
51249;BME280;39642;47.556;18.728;2023-09-18T08:02:33;99734.97;;;24.25;54.10
51249;BME280;39642;47.556;18.728;2023-09-18T08:05:01;99734.22;;;24.23;54.36
51249;BME280;39642;47.556;18.728;2023-09-18T08:07:28;99727.44;;;24.19;54.73
51249;BME280;39642;47.556;18.728;2023-09-18T08:09:54;99725.63;;;24.20;55.37
51249;BME280;39642;47.556;18.728;2023-09-18T08:12:20;99723.19;;;24.17;55.88
51249;BME280;39642;47.556;18.728;2023-09-18T08:14:46;99716.16;;;24.16;55.75
51249;BME280;39642;47.556;18.728;2023-09-18T08:17:14;99707.81;;;24.20;56.49
51249;BME280;39642;47.556;18.728;2023-09-18T08:19:40;99717.63;;;24.20;55.33
51249;BME280;39642;47.556;18.728;2023-09-18T08:22:07;99717.63;;;24.20;55.29
51249;BME280;39642;47.556;18.728;2023-09-18T08:24:33;99714.97;;;24.20;55.19
51249;BME280;39642;47.556;18.728;2023-09-18T08:26:59;99714.03;;;24.21;55.13
51249;BME280;39642;47.556;18.728;2023-09-18T08:29:25;99713.88;;;24.22;54.61
51249;BME280;39642;47.556;18.728;2023-09-18T08:31:51;99721.88;;;24.22;54.53
51249;BME280;39642;47.556;18.728;2023-09-18T08:34:17;99717.41;;;24.23;54.61
51249;BME280;39642;47.556;18.728;2023-09-18T08:36:44;99721.88;;;24.22;54.42
51249;BME280;39642;47.556;18.728;2023-09-18T08:39:09;99720.19;;;24.21;55.01
51249;BME280;39642;47.556;18.728;2023-09-18T08:41:39;99721.13;;;24.20;55.01
51249;BME280;39642;47.556;18.728;2023-09-18T08:44:08;99723.94;;;24.19;55.15
51249;BME280;39642;47.556;18.728;2023-09-18T08:46:36;99722.00;;;24.21;55.59
51249;BME280;39642;47.556;18.728;2023-09-18T08:49:04;99725.75;;;24.29;55.31
51249;BME280;39642;47.556;18.728;2023-09-18T08:51:30;99728.59;;;24.39;54.94
51249;BME280;39642;47.556;18.728;2023-09-18T08:53:56;99722.91;;;24.44;54.88
51249;BME280;39642;47.556;18.728;2023-09-18T08:56:23;99737.59;;;24.49;53.90
51249;BME280;39642;47.556;18.728;2023-09-18T08:58:49;99739.06;;;24.54;53.87
51249;BME280;39642;47.556;18.728;2023-09-18T09:01:15;99739.34;;;24.62;53.53
51249;BME280;39642;47.556;18.728;2023-09-18T09:03:43;99748.78;;;24.66;53.53
51249;BME280;39642;47.556;18.728;2023-09-18T09:06:11;99740.53;;;24.69;53.41
51249;BME280;39642;47.556;18.728;2023-09-18T09:08:38;99733.53;;;24.68;53.25
51249;BME280;39642;47.556;18.728;2023-09-18T09:11:05;99738.72;;;24.69;53.22
51249;BME280;39642;47.556;18.728;2023-09-18T09:13:31;99738.00;;;24.67;53.21
51249;BME280;39642;47.556;18.728;2023-09-18T09:15:58;99737.41;;;24.64;53.34
51249;BME280;39642;47.556;18.728;2023-09-18T09:18:26;99728.69;;;24.62;53.45
51249;BME280;39642;47.556;18.728;2023-09-18T09:21:02;99718.25;;;24.59;53.59
51249;BME280;39642;47.556;18.728;2023-09-18T09:23:52;99719.22;;;24.58;54.12
51249;BME280;39642;47.556;18.728;2023-09-18T09:26:20;99726.00;;;24.50;54.30
51249;BME280;39642;47.556;18.728;2023-09-18T09:28:47;99722.91;;;24.44;54.32
51249;BME280;39642;47.556;18.728;2023-09-18T09:31:34;99727.50;;;24.42;54.33
51249;BME280;39642;47.556;18.728;2023-09-18T09:34:00;99723.28;;;24.39;54.36
51249;BME280;39642;47.556;18.728;2023-09-18T09:36:31;99721.56;;;24.38;54.41
51249;BME280;39642;47.556;18.728;2023-09-18T09:38:59;99719.87;;;24.37;54.41
51249;BME280;39642;47.556;18.728;2023-09-18T09:41:26;99711.03;;;24.37;54.40
51249;BME280;39642;47.556;18.728;2023-09-18T09:43:56;99703.16;;;24.35;54.39
51249;BME280;39642;47.556;18.728;2023-09-18T09:46:23;99692.34;;;24.49;55.30
51249;BME280;39642;47.556;18.728;2023-09-18T09:49:01;99693.72;;;24.66;53.89
51249;BME280;39642;47.556;18.728;2023-09-18T09:51:28;99687.91;;;24.72;53.33
51249;BME280;39642;47.556;18.728;2023-09-18T09:53:55;99692.88;;;24.77;53.33
51249;BME280;39642;47.556;18.728;2023-09-18T09:56:44;99682.34;;;24.76;53.92
51249;BME280;39642;47.556;18.728;2023-09-18T09:59:11;99680.28;;;24.68;54.11
51249;BME280;39642;47.556;18.728;2023-09-18T10:01:39;99683.16;;;24.65;54.45
51249;BME280;39642;47.556;18.728;2023-09-18T10:04:12;99673.87;;;24.59;54.21
51249;BME280;39642;47.556;18.728;2023-09-18T10:06:41;99670.81;;;24.52;54.56
51249;BME280;39642;47.556;18.728;2023-09-18T10:09:08;99668.28;;;24.51;54.41
51249;BME280;39642;47.556;18.728;2023-09-18T10:11:41;99663.19;;;24.48;54.40
51249;BME280;39642;47.556;18.728;2023-09-18T10:14:18;99657.22;;;24.44;54.40
51249;BME280;39642;47.556;18.728;2023-09-18T10:16:54;99653.94;;;24.41;54.47
51249;BME280;39642;47.556;18.728;2023-09-18T10:19:34;99655.75;;;24.40;54.47
51249;BME280;39642;47.556;18.728;2023-09-18T10:22:21;99653.22;;;24.39;54.51
51249;BME280;39642;47.556;18.728;2023-09-18T10:24:55;99647.78;;;24.40;54.89
51249;BME280;39642;47.556;18.728;2023-09-18T10:27:27;99643.59;;;24.49;54.31
51249;BME280;39642;47.556;18.728;2023-09-18T10:29:54;99637.41;;;24.48;54.34
51249;BME280;39642;47.556;18.728;2023-09-18T10:32:21;99625.16;;;24.46;54.37
51249;BME280;39642;47.556;18.728;2023-09-18T10:34:48;99634.25;;;24.43;54.31
51249;BME280;39642;47.556;18.728;2023-09-18T10:37:15;99632.53;;;24.42;54.74
51249;BME280;39642;47.556;18.728;2023-09-18T10:39:42;99622.63;;;24.44;55.74
51249;BME280;39642;47.556;18.728;2023-09-18T10:42:12;99630.28;;;24.60;54.48
51249;BME280;39642;47.556;18.728;2023-09-18T10:44:40;99627.03;;;24.68;54.76
51249;BME280;39642;47.556;18.728;2023-09-18T10:47:09;99628.97;;;24.77;55.14
51249;BME280;39642;47.556;18.728;2023-09-18T10:49:36;99619.41;;;24.86;54.09
51249;BME280;39642;47.556;18.728;2023-09-18T10:52:03;99618.53;;;24.85;53.59
51249;BME280;39642;47.556;18.728;2023-09-18T10:54:31;99622.91;;;24.86;53.62
51249;BME280;39642;47.556;18.728;2023-09-18T10:56:57;99612.25;;;24.86;53.75
51249;BME280;39642;47.556;18.728;2023-09-18T10:59:24;99614.94;;;24.86;53.57
51249;BME280;39642;47.556;18.728;2023-09-18T11:01:50;99611.28;;;24.87;53.97
51249;BME280;39642;47.556;18.728;2023-09-18T11:04:20;99602.09;;;24.91;53.92
51249;BME280;39642;47.556;18.728;2023-09-18T11:09:21;99593.09;;;24.92;53.23
51249;BME280;39642;47.556;18.728;2023-09-18T11:12:03;99585.00;;;24.94;53.24
51249;BME280;39642;47.556;18.728;2023-09-18T11:14:49;99583.31;;;24.93;53.38
51249;BME280;39642;47.556;18.728;2023-09-18T11:17:28;99590.59;;;24.91;53.39
51249;BME280;39642;47.556;18.728;2023-09-18T11:20:04;99576.16;;;24.93;53.31
51249;BME280;39642;47.556;18.728;2023-09-18T11:22:36;99577.13;;;24.92;53.25
51249;BME280;39642;47.556;18.728;2023-09-18T11:28:15;99581.97;;;24.99;52.98
51249;BME280;39642;47.556;18.728;2023-09-18T11:30:50;99585.34;;;25.01;52.78
51249;BME280;39642;47.556;18.728;2023-09-18T11:33:40;99586.34;;;25.00;52.94
51249;BME280;39642;47.556;18.728;2023-09-18T11:36:12;99573.13;;;24.98;53.06
51249;BME280;39642;47.556;18.728;2023-09-18T11:38:57;99575.78;;;24.98;52.91
51249;BME280;39642;47.556;18.728;2023-09-18T11:41:33;99579.44;;;24.97;54.51
51249;BME280;39642;47.556;18.728;2023-09-18T11:46:55;99566.47;;;24.92;53.96
51249;BME280;39642;47.556;18.728;2023-09-18T11:49:24;99553.41;;;24.89;54.10
51249;BME280;39642;47.556;18.728;2023-09-18T11:51:54;99541.91;;;24.89;53.50
51249;BME280;39642;47.556;18.728;2023-09-18T11:54:24;99537.31;;;24.91;53.20
51249;BME280;39642;47.556;18.728;2023-09-18T11:56:51;99529.91;;;24.94;53.08
51249;BME280;39642;47.556;18.728;2023-09-18T11:59:18;99535.72;;;25.00;52.38
51249;BME280;39642;47.556;18.728;2023-09-18T12:01:55;99544.44;;;25.02;52.42
51249;BME280;39642;47.556;18.728;2023-09-18T12:04:27;99541.78;;;25.02;53.51
51249;BME280;39642;47.556;18.728;2023-09-18T12:06:54;99533.06;;;25.00;54.54
51249;BME280;39642;47.556;18.728;2023-09-18T12:09:20;99527.97;;;24.97;53.18
51249;BME280;39642;47.556;18.728;2023-09-18T12:11:46;99527.59;;;25.01;52.39
51249;BME280;39642;47.556;18.728;2023-09-18T12:14:18;99530.88;;;25.05;52.10
51249;BME280;39642;47.556;18.728;2023-09-18T12:16:44;99534.25;;;25.07;52.23
51249;BME280;39642;47.556;18.728;2023-09-18T12:19:16;99530.13;;;25.03;52.02
51249;BME280;39642;47.556;18.728;2023-09-18T12:21:46;99526.75;;;25.01;52.28
51249;BME280;39642;47.556;18.728;2023-09-18T12:24:14;99521.44;;;25.01;51.70
51249;BME280;39642;47.556;18.728;2023-09-18T12:26:41;99520.94;;;25.07;50.99
51249;BME280;39642;47.556;18.728;2023-09-18T12:29:07;99516.31;;;25.09;51.01
51249;BME280;39642;47.556;18.728;2023-09-18T12:31:34;99506.37;;;25.11;51.22
51249;BME280;39642;47.556;18.728;2023-09-18T12:34:00;99511.44;;;25.14;52.09
51249;BME280;39642;47.556;18.728;2023-09-18T12:36:25;99503.34;;;25.16;52.94
51249;BME280;39642;47.556;18.728;2023-09-18T12:38:56;99499.56;;;25.18;53.38
51249;BME280;39642;47.556;18.728;2023-09-18T12:41:26;99492.19;;;25.22;53.43
51249;BME280;39642;47.556;18.728;2023-09-18T12:43:52;99493.78;;;25.24;53.09
51249;BME280;39642;47.556;18.728;2023-09-18T12:46:19;99492.28;;;25.31;52.56
51249;BME280;39642;47.556;18.728;2023-09-18T12:48:47;99484.88;;;25.35;52.18
51249;BME280;39642;47.556;18.728;2023-09-18T12:51:13;99483.19;;;25.34;52.55
51249;BME280;39642;47.556;18.728;2023-09-18T12:53:40;99479.69;;;25.33;52.57
51249;BME280;39642;47.556;18.728;2023-09-18T12:56:10;99494.94;;;25.31;52.68
51249;BME280;39642;47.556;18.728;2023-09-18T12:58:36;99486.69;;;25.34;52.07
51249;BME280;39642;47.556;18.728;2023-09-18T13:01:10;99483.06;;;25.36;51.86
51249;BME280;39642;47.556;18.728;2023-09-18T13:03:44;99478.47;;;25.38;51.82
51249;BME280;39642;47.556;18.728;2023-09-18T13:06:12;99480.00;;;25.40;51.75
51249;BME280;39642;47.556;18.728;2023-09-18T13:08:38;99472.84;;;25.41;51.35
51249;BME280;39642;47.556;18.728;2023-09-18T13:11:04;99467.97;;;25.46;51.54
51249;BME280;39642;47.556;18.728;2023-09-18T13:13:30;99473.69;;;25.41;51.89
51249;BME280;39642;47.556;18.728;2023-09-18T13:16:00;99463.31;;;25.38;51.83
51249;BME280;39642;47.556;18.728;2023-09-18T13:18:26;99458.09;;;25.37;51.12